Glomfjord, Norway

3:40 PM CET on February 14, 2016 (GMT +0100)
Halsa | | Change Station
CLOSE
Current Station
Personal Weather Station
Location: Halsa, NORDLAND
Elevation: 90 ft
Nearby Weather Stations

Elev 90 ft 66.75 °N, 13.54 °E | Updated 7 minutes ago

Clear
Clear
26.9 °F
Feels Like 27 °F
N
0.0
Wind Variable Wind from SE
Gusts 0.0 mph

Today
High -- | Low -- °F
--% Chance of Precip.
Yesterday
High -- | Low -- °F
Precip. -- in
Pressure 29.62 in
Visibility -9999.0 miles
Clouds
Windchill 27 °F
Dew Point 16 °F
Humidity 63%
Rainfall 0.00 in
Snow Depth Not available.
8:20 AM 4:17 PM
Waxing Crescent, 42% visible
METAR ENRA 141420Z 15004KT CAVOK M06/M12 Q1003
Pressure 29.62 in
Visibility -9999.0 miles
Clouds
Windchill 27 °F
Dew Point 16 °F
Humidity 63%
Rainfall 0.00 in
Snow Depth Not available.
8:20 AM 4:17 PM
Waxing Crescent, 42% visible
METAR ENRA 141420Z 15004KT CAVOK M06/M12 Q1003

10-Day Weather Forecast

Almanac

Astronomy

Feb. 14, 2016 Rise Set
Actual Time
Civil Twilight
Nautical Twilight
Astronomical Twilight
Moon
Length of Visible Light
Length of Day
Tomorrow will be .
, % of the Moon is Illuminated

Today's Extremes

Country Highs Country Lows

Community

WunderPhotos

Upload Photos

1,892,773 photos uploaded!

WunderBlog® & News

Nearby

Air Quality

  Air Quality AQ Index Pollutant
Not available.

Snow Depth

Station Depth Elevation

Earthquake Activity

City Distance Mag. Time & Date
Minimum magnitude displayed is 2.5.

Coastal Water Temperatures

Place Temperature

Stations

Nearby Weather Stations

Station Location Temp. Windchill Dew Point Humidity Wind Precip. Elev Updated Type